sensor_id;sensor_type;location;lat;lon;timestamp;noise_LAeq;noise_LA_min;noise_LA_max;noise_LA01;noise_LA95
17594;Laerm;8916;47.086;15.920;2023-04-06T00:00:31;49.53;48.55;50.57;;
17594;Laerm;8916;47.086;15.920;2023-04-06T00:03:00;49.52;48.23;50.59;;
17594;Laerm;8916;47.086;15.920;2023-04-06T00:05:29;49.52;48.49;50.91;;
17594;Laerm;8916;47.086;15.920;2023-04-06T00:07:59;49.53;48.45;50.68;;
17594;Laerm;8916;47.086;15.920;2023-04-06T00:10:30;49.52;48.34;50.70;;
17594;Laerm;8916;47.086;15.920;2023-04-06T00:12:59;49.52;48.43;50.70;;
17594;Laerm;8916;47.086;15.920;2023-04-06T00:15:29;49.53;48.46;50.64;;
17594;Laerm;8916;47.086;15.920;2023-04-06T00:17:58;49.54;48.52;50.67;;
17594;Laerm;8916;47.086;15.920;2023-04-06T00:20:27;49.53;48.52;50.61;;
17594;Laerm;8916;47.086;15.920;2023-04-06T00:22:57;49.52;48.54;50.56;;
17594;Laerm;8916;47.086;15.920;2023-04-06T00:25:26;49.52;48.46;50.50;;
17594;Laerm;8916;47.086;15.920;2023-04-06T00:27:57;49.53;48.31;50.52;;
17594;Laerm;8916;47.086;15.920;2023-04-06T00:30:26;49.53;48.54;50.72;;
17594;Laerm;8916;47.086;15.920;2023-04-06T00:32:55;49.53;48.39;50.56;;
17594;Laerm;8916;47.086;15.920;2023-04-06T00:35:25;49.53;48.39;50.74;;
17594;Laerm;8916;47.086;15.920;2023-04-06T00:37:54;49.53;48.48;50.94;;
17594;Laerm;8916;47.086;15.920;2023-04-06T00:40:23;49.53;48.48;50.54;;
17594;Laerm;8916;47.086;15.920;2023-04-06T00:42:53;49.54;48.48;50.69;;
17594;Laerm;8916;47.086;15.920;2023-04-06T00:45:23;49.53;48.52;50.63;;
17594;Laerm;8916;47.086;15.920;2023-04-06T00:47:52;49.53;48.43;50.59;;
17594;Laerm;8916;47.086;15.920;2023-04-06T00:50:22;49.52;48.40;50.64;;
17594;Laerm;8916;47.086;15.920;2023-04-06T00:52:51;49.53;48.37;50.54;;
17594;Laerm;8916;47.086;15.920;2023-04-06T00:55:26;49.52;48.45;50.59;;
17594;Laerm;8916;47.086;15.920;2023-04-06T00:57:58;49.52;48.49;50.48;;
17594;Laerm;8916;47.086;15.920;2023-04-06T01:00:32;49.52;48.49;50.52;;
17594;Laerm;8916;47.086;15.920;2023-04-06T01:03:03;49.52;48.28;50.82;;
17594;Laerm;8916;47.086;15.920;2023-04-06T01:05:39;49.53;48.25;50.56;;
17594;Laerm;8916;47.086;15.920;2023-04-06T01:08:18;49.53;48.42;50.65;;
17594;Laerm;8916;47.086;15.920;2023-04-06T01:10:52;49.53;48.40;50.57;;
17594;Laerm;8916;47.086;15.920;2023-04-06T01:13:28;49.52;48.25;50.41;;
17594;Laerm;8916;47.086;15.920;2023-04-06T01:16:06;49.53;48.43;50.61;;
17594;Laerm;8916;47.086;15.920;2023-04-06T01:18:54;49.53;48.46;50.72;;
17594;Laerm;8916;47.086;15.920;2023-04-06T01:21:28;49.54;48.20;50.58;;
17594;Laerm;8916;47.086;15.920;2023-04-06T01:24:14;49.55;48.26;50.63;;
17594;Laerm;8916;47.086;15.920;2023-04-06T01:27:02;49.55;48.29;50.63;;
17594;Laerm;8916;47.086;15.920;2023-04-06T01:29:41;49.55;48.34;50.69;;
17594;Laerm;8916;47.086;15.920;2023-04-06T01:32:14;49.55;48.28;50.84;;
17594;Laerm;8916;47.086;15.920;2023-04-06T01:34:49;49.56;48.23;50.60;;
17594;Laerm;8916;47.086;15.920;2023-04-06T01:37:19;49.56;48.49;50.49;;
17594;Laerm;8916;47.086;15.920;2023-04-06T01:39:50;49.55;48.55;50.75;;
17594;Laerm;8916;47.086;15.920;2023-04-06T01:42:33;49.55;48.46;50.83;;
17594;Laerm;8916;47.086;15.920;2023-04-06T01:45:04;49.56;48.28;50.61;;
17594;Laerm;8916;47.086;15.920;2023-04-06T01:47:34;49.56;48.54;50.78;;
17594;Laerm;8916;47.086;15.920;2023-04-06T01:50:05;49.55;48.57;50.69;;
17594;Laerm;8916;47.086;15.920;2023-04-06T01:52:42;49.55;48.31;50.83;;
17594;Laerm;8916;47.086;15.920;2023-04-06T01:55:14;49.56;48.32;50.65;;
17594;Laerm;8916;47.086;15.920;2023-04-06T01:58:01;49.56;48.63;50.62;;
17594;Laerm;8916;47.086;15.920;2023-04-06T02:00:36;49.56;48.51;50.61;;
17594;Laerm;8916;47.086;15.920;2023-04-06T02:03:06;49.56;48.57;50.64;;
17594;Laerm;8916;47.086;15.920;2023-04-06T02:05:36;49.56;48.45;50.77;;
17594;Laerm;8916;47.086;15.920;2023-04-06T02:08:17;49.55;48.23;50.62;;
17594;Laerm;8916;47.086;15.920;2023-04-06T02:10:48;49.55;48.45;50.58;;
17594;Laerm;8916;47.086;15.920;2023-04-06T02:13:27;49.55;48.45;50.67;;
17594;Laerm;8916;47.086;15.920;2023-04-06T02:15:56;49.57;48.57;50.69;;
17594;Laerm;8916;47.086;15.920;2023-04-06T02:18:29;49.56;48.29;50.62;;
17594;Laerm;8916;47.086;15.920;2023-04-06T02:20:59;49.55;48.54;50.58;;
17594;Laerm;8916;47.086;15.920;2023-04-06T02:23:28;49.56;48.29;50.75;;
17594;Laerm;8916;47.086;15.920;2023-04-06T02:25:59;49.56;48.42;50.68;;
17594;Laerm;8916;47.086;15.920;2023-04-06T02:28:28;49.55;48.58;50.68;;
17594;Laerm;8916;47.086;15.920;2023-04-06T02:30:58;49.55;48.42;50.65;;
17594;Laerm;8916;47.086;15.920;2023-04-06T02:33:27;49.55;48.32;50.73;;
17594;Laerm;8916;47.086;15.920;2023-04-06T02:35:57;49.55;48.49;50.54;;
17594;Laerm;8916;47.086;15.920;2023-04-06T02:38:26;49.56;48.32;50.51;;
17594;Laerm;8916;47.086;15.920;2023-04-06T02:40:56;49.56;48.43;50.54;;
17594;Laerm;8916;47.086;15.920;2023-04-06T02:43:29;49.56;48.52;50.70;;
17594;Laerm;8916;47.086;15.920;2023-04-06T02:46:05;49.56;48.52;50.60;;
17594;Laerm;8916;47.086;15.920;2023-04-06T02:48:38;49.57;48.54;50.71;;
17594;Laerm;8916;47.086;15.920;2023-04-06T02:51:07;49.56;48.55;50.55;;
17594;Laerm;8916;47.086;15.920;2023-04-06T02:53:38;49.56;48.42;50.60;;
17594;Laerm;8916;47.086;15.920;2023-04-06T02:56:07;49.56;48.51;50.65;;
17594;Laerm;8916;47.086;15.920;2023-04-06T02:58:51;49.57;48.46;50.70;;
17594;Laerm;8916;47.086;15.920;2023-04-06T03:01:24;49.57;48.44;50.70;;
17594;Laerm;8916;47.086;15.920;2023-04-06T03:03:58;49.56;48.58;50.75;;
17594;Laerm;8916;47.086;15.920;2023-04-06T03:06:29;49.57;48.54;50.56;;
17594;Laerm;8916;47.086;15.920;2023-04-06T03:09:07;49.57;48.25;50.81;;
17594;Laerm;8916;47.086;15.920;2023-04-06T03:11:39;49.57;48.39;50.77;;
17594;Laerm;8916;47.086;15.920;2023-04-06T03:14:10;49.57;48.52;50.95;;
17594;Laerm;8916;47.086;15.920;2023-04-06T03:16:39;49.57;48.51;50.60;;
17594;Laerm;8916;47.086;15.920;2023-04-06T03:19:08;49.57;48.39;50.62;;
17594;Laerm;8916;47.086;15.920;2023-04-06T03:21:38;49.58;48.52;50.70;;
17594;Laerm;8916;47.086;15.920;2023-04-06T03:24:08;49.57;48.49;50.82;;
17594;Laerm;8916;47.086;15.920;2023-04-06T03:26:37;49.57;48.51;50.57;;
17594;Laerm;8916;47.086;15.920;2023-04-06T03:29:09;49.58;48.46;50.79;;
17594;Laerm;8916;47.086;15.920;2023-04-06T03:31:38;49.59;48.52;50.84;;
17594;Laerm;8916;47.086;15.920;2023-04-06T03:34:26;49.59;48.37;50.74;;
17594;Laerm;8916;47.086;15.920;2023-04-06T03:36:55;49.58;48.67;50.64;;
17594;Laerm;8916;47.086;15.920;2023-04-06T03:39:41;49.57;48.16;50.56;;
17594;Laerm;8916;47.086;15.920;2023-04-06T03:42:16;49.58;48.37;50.61;;
17594;Laerm;8916;47.086;15.920;2023-04-06T03:44:53;49.58;48.48;50.56;;
17594;Laerm;8916;47.086;15.920;2023-04-06T03:47:23;49.58;48.47;50.69;;
17594;Laerm;8916;47.086;15.920;2023-04-06T03:49:57;49.57;48.43;50.77;;
17594;Laerm;8916;47.086;15.920;2023-04-06T03:52:26;49.57;48.42;50.68;;
17594;Laerm;8916;47.086;15.920;2023-04-06T03:54:59;49.58;48.48;50.60;;
17594;Laerm;8916;47.086;15.920;2023-04-06T03:57:28;49.58;48.44;50.77;;
17594;Laerm;8916;47.086;15.920;2023-04-06T03:59:59;49.57;48.52;50.68;;
17594;Laerm;8916;47.086;15.920;2023-04-06T04:02:39;49.58;48.32;50.65;;
17594;Laerm;8916;47.086;15.920;2023-04-06T04:05:09;49.59;48.45;50.70;;
17594;Laerm;8916;47.086;15.920;2023-04-06T04:07:38;49.59;48.45;50.58;;
17594;Laerm;8916;47.086;15.920;2023-04-06T04:10:10;49.58;48.42;50.53;;
17594;Laerm;8916;47.086;15.920;2023-04-06T04:12:39;49.59;48.46;50.68;;
17594;Laerm;8916;47.086;15.920;2023-04-06T04:15:10;49.58;48.39;50.73;;
17594;Laerm;8916;47.086;15.920;2023-04-06T04:17:39;49.58;48.52;50.68;;
17594;Laerm;8916;47.086;15.920;2023-04-06T04:20:12;49.57;48.32;50.76;;
17594;Laerm;8916;47.086;15.920;2023-04-06T04:22:41;49.59;48.45;50.67;;
17594;Laerm;8916;47.086;15.920;2023-04-06T04:25:11;49.60;48.43;50.72;;
17594;Laerm;8916;47.086;15.920;2023-04-06T04:27:45;49.59;48.58;50.73;;
17594;Laerm;8916;47.086;15.920;2023-04-06T04:30:17;49.60;48.42;50.57;;
17594;Laerm;8916;47.086;15.920;2023-04-06T04:32:46;49.61;48.37;50.68;;
17594;Laerm;8916;47.086;15.920;2023-04-06T04:35:19;49.60;48.21;50.61;;
17594;Laerm;8916;47.086;15.920;2023-04-06T04:37:49;49.61;48.60;50.70;;
17594;Laerm;8916;47.086;15.920;2023-04-06T04:40:19;49.60;48.46;50.84;;
17594;Laerm;8916;47.086;15.920;2023-04-06T04:42:58;49.61;48.63;50.77;;
17594;Laerm;8916;47.086;15.920;2023-04-06T04:45:34;49.60;48.51;50.68;;
17594;Laerm;8916;47.086;15.920;2023-04-06T04:48:16;49.60;48.51;50.69;;
17594;Laerm;8916;47.086;15.920;2023-04-06T04:50:56;49.60;48.54;50.69;;
17594;Laerm;8916;47.086;15.920;2023-04-06T04:53:30;49.60;48.55;50.72;;
17594;Laerm;8916;47.086;15.920;2023-04-06T04:56:08;49.60;48.54;50.77;;
17594;Laerm;8916;47.086;15.920;2023-04-06T04:58:37;49.59;48.56;50.66;;
17594;Laerm;8916;47.086;15.920;2023-04-06T05:01:08;49.58;48.46;50.66;;
17594;Laerm;8916;47.086;15.920;2023-04-06T05:03:38;49.57;48.57;50.70;;
17594;Laerm;8916;47.086;15.920;2023-04-06T05:06:12;49.59;48.55;50.59;;
17594;Laerm;8916;47.086;15.920;2023-04-06T05:08:42;49.58;48.46;50.81;;
17594;Laerm;8916;47.086;15.920;2023-04-06T05:11:12;49.57;48.54;50.77;;
17594;Laerm;8916;47.086;15.920;2023-04-06T05:13:46;49.57;48.26;50.60;;
17594;Laerm;8916;47.086;15.920;2023-04-06T05:16:21;49.56;48.21;50.68;;
17594;Laerm;8916;47.086;15.920;2023-04-06T05:18:51;49.55;48.28;50.63;;
17594;Laerm;8916;47.086;15.920;2023-04-06T05:21:22;49.56;48.51;50.60;;
17594;Laerm;8916;47.086;15.920;2023-04-06T05:24:06;49.56;48.58;50.73;;
17594;Laerm;8916;47.086;15.920;2023-04-06T05:26:37;49.55;48.52;50.69;;
17594;Laerm;8916;47.086;15.920;2023-04-06T05:29:13;49.54;48.52;50.74;;
17594;Laerm;8916;47.086;15.920;2023-04-06T05:31:44;49.54;48.39;50.65;;
17594;Laerm;8916;47.086;15.920;2023-04-06T05:34:14;49.53;48.45;50.55;;
17594;Laerm;8916;47.086;15.920;2023-04-06T05:36:43;49.52;48.43;50.66;;
17594;Laerm;8916;47.086;15.920;2023-04-06T05:39:22;49.53;48.57;50.87;;
17594;Laerm;8916;47.086;15.920;2023-04-06T05:41:53;49.51;48.39;50.56;;
17594;Laerm;8916;47.086;15.920;2023-04-06T05:44:37;49.51;48.21;50.64;;
17594;Laerm;8916;47.086;15.920;2023-04-06T05:47:12;49.51;48.55;50.72;;
17594;Laerm;8916;47.086;15.920;2023-04-06T05:49:43;49.50;48.52;50.54;;
17594;Laerm;8916;47.086;15.920;2023-04-06T05:52:21;49.49;48.31;50.60;;
17594;Laerm;8916;47.086;15.920;2023-04-06T05:54:50;49.49;48.13;50.60;;
17594;Laerm;8916;47.086;15.920;2023-04-06T05:57:19;49.48;48.43;50.61;;
17594;Laerm;8916;47.086;15.920;2023-04-06T05:59:49;49.48;48.32;50.47;;
17594;Laerm;8916;47.086;15.920;2023-04-06T06:02:22;49.47;48.40;50.56;;
17594;Laerm;8916;47.086;15.920;2023-04-06T06:04:53;49.46;48.32;50.67;;
17594;Laerm;8916;47.086;15.920;2023-04-06T06:07:24;49.47;48.26;50.68;;
17594;Laerm;8916;47.086;15.920;2023-04-06T06:10:00;49.47;48.16;50.55;;
17594;Laerm;8916;47.086;15.920;2023-04-06T06:12:32;49.45;48.26;50.43;;
17594;Laerm;8916;47.086;15.920;2023-04-06T06:15:03;49.44;48.36;50.51;;
17594;Laerm;8916;47.086;15.920;2023-04-06T06:17:38;49.45;48.28;50.66;;
17594;Laerm;8916;47.086;15.920;2023-04-06T06:20:08;49.43;48.39;50.38;;
17594;Laerm;8916;47.086;15.920;2023-04-06T06:22:38;49.43;48.32;50.51;;
17594;Laerm;8916;47.086;15.920;2023-04-06T06:25:12;49.42;48.32;50.46;;
17594;Laerm;8916;47.086;15.920;2023-04-06T06:27:41;49.42;48.40;50.43;;
17594;Laerm;8916;47.086;15.920;2023-04-06T06:30:12;49.41;48.21;50.56;;
17594;Laerm;8916;47.086;15.920;2023-04-06T06:32:44;49.40;48.40;50.64;;
17594;Laerm;8916;47.086;15.920;2023-04-06T06:35:14;49.39;48.36;50.44;;
17594;Laerm;8916;47.086;15.920;2023-04-06T06:37:43;49.39;48.43;50.64;;
17594;Laerm;8916;47.086;15.920;2023-04-06T06:40:16;49.38;48.26;50.38;;
17594;Laerm;8916;47.086;15.920;2023-04-06T06:42:48;49.37;48.26;50.40;;
17594;Laerm;8916;47.086;15.920;2023-04-06T06:45:47;49.37;48.28;50.46;;
17594;Laerm;8916;47.086;15.920;2023-04-06T06:48:18;49.36;48.07;50.50;;
17594;Laerm;8916;47.086;15.920;2023-04-06T06:50:48;49.35;48.32;50.41;;
17594;Laerm;8916;47.086;15.920;2023-04-06T06:53:17;49.34;48.16;50.47;;
17594;Laerm;8916;47.086;15.920;2023-04-06T06:55:46;49.34;48.25;50.56;;
17594;Laerm;8916;47.086;15.920;2023-04-06T06:58:18;49.32;48.10;50.32;;
17594;Laerm;8916;47.086;15.920;2023-04-06T07:00:49;49.32;48.18;50.63;;
17594;Laerm;8916;47.086;15.920;2023-04-06T07:03:19;49.29;48.00;50.42;;
17594;Laerm;8916;47.086;15.920;2023-04-06T07:05:49;49.28;48.13;50.44;;
17594;Laerm;8916;47.086;15.920;2023-04-06T07:08:27;49.22;48.19;50.56;;
17594;Laerm;8916;47.086;15.920;2023-04-06T07:10:56;49.16;48.15;50.33;;
17594;Laerm;8916;47.086;15.920;2023-04-06T07:13:25;49.13;47.95;50.36;;
17594;Laerm;8916;47.086;15.920;2023-04-06T07:15:58;49.11;48.10;50.54;;
17594;Laerm;8916;47.086;15.920;2023-04-06T07:18:30;49.10;47.90;50.35;;
17594;Laerm;8916;47.086;15.920;2023-04-06T07:21:04;49.10;48.10;50.19;;
17594;Laerm;8916;47.086;15.920;2023-04-06T07:23:33;49.08;47.86;50.31;;
17594;Laerm;8916;47.086;15.920;2023-04-06T07:26:05;49.09;47.81;50.20;;
17594;Laerm;8916;47.086;15.920;2023-04-06T07:28:40;49.09;48.05;50.22;;
17594;Laerm;8916;47.086;15.920;2023-04-06T07:31:11;49.08;48.00;50.17;;
17594;Laerm;8916;47.086;15.920;2023-04-06T07:33:46;49.04;47.95;50.08;;
17594;Laerm;8916;47.086;15.920;2023-04-06T07:36:16;49.02;47.91;50.33;;
17594;Laerm;8916;47.086;15.920;2023-04-06T07:38:46;49.03;47.98;50.18;;
17594;Laerm;8916;47.086;15.920;2023-04-06T07:41:15;49.02;47.98;50.18;;
17594;Laerm;8916;47.086;15.920;2023-04-06T07:43:45;49.03;47.55;50.33;;
17594;Laerm;8916;47.086;15.920;2023-04-06T07:46:14;49.04;47.84;50.18;;
17594;Laerm;8916;47.086;15.920;2023-04-06T07:48:46;49.03;47.96;50.52;;
17594;Laerm;8916;47.086;15.920;2023-04-06T07:51:15;49.00;47.83;50.22;;
17594;Laerm;8916;47.086;15.920;2023-04-06T07:53:47;49.01;47.83;50.11;;
17594;Laerm;8916;47.086;15.920;2023-04-06T07:56:16;49.04;47.95;50.13;;
17594;Laerm;8916;47.086;15.920;2023-04-06T07:58:46;49.03;47.77;50.09;;
17594;Laerm;8916;47.086;15.920;2023-04-06T08:01:15;49.01;47.84;50.10;;
17594;Laerm;8916;47.086;15.920;2023-04-06T08:03:45;49.02;47.86;50.07;;
17594;Laerm;8916;47.086;15.920;2023-04-06T08:06:18;49.02;48.03;50.12;;
17594;Laerm;8916;47.086;15.920;2023-04-06T08:08:47;49.00;48.07;50.42;;
17594;Laerm;8916;47.086;15.920;2023-04-06T08:11:17;49.02;48.03;50.37;;
17594;Laerm;8916;47.086;15.920;2023-04-06T08:13:46;49.00;47.91;50.34;;
17594;Laerm;8916;47.086;15.920;2023-04-06T08:16:15;48.99;48.00;50.02;;
17594;Laerm;8916;47.086;15.920;2023-04-06T08:18:46;48.99;47.84;50.00;;
17594;Laerm;8916;47.086;15.920;2023-04-06T08:21:15;49.01;47.98;50.47;;
17594;Laerm;8916;47.086;15.920;2023-04-06T08:23:45;48.99;47.86;50.26;;
17594;Laerm;8916;47.086;15.920;2023-04-06T08:26:17;48.95;47.79;49.94;;
17594;Laerm;8916;47.086;15.920;2023-04-06T08:28:47;48.98;47.68;50.08;;
17594;Laerm;8916;47.086;15.920;2023-04-06T08:31:16;48.97;47.81;50.13;;
17594;Laerm;8916;47.086;15.920;2023-04-06T08:33:50;48.96;47.76;50.00;;
17594;Laerm;8916;47.086;15.920;2023-04-06T08:36:19;48.96;47.88;50.13;;
17594;Laerm;8916;47.086;15.920;2023-04-06T08:38:50;48.97;47.78;50.31;;
17594;Laerm;8916;47.086;15.920;2023-04-06T08:41:20;48.96;47.93;50.19;;
17594;Laerm;8916;47.086;15.920;2023-04-06T08:43:52;48.97;47.88;50.21;;
17594;Laerm;8916;47.086;15.920;2023-04-06T08:46:26;48.97;47.76;50.25;;
17594;Laerm;8916;47.086;15.920;2023-04-06T08:49:02;48.95;47.79;50.01;;
17594;Laerm;8916;47.086;15.920;2023-04-06T08:51:37;48.92;47.91;50.16;;
17594;Laerm;8916;47.086;15.920;2023-04-06T08:54:06;48.95;47.93;50.27;;
17594;Laerm;8916;47.086;15.920;2023-04-06T08:56:38;48.95;47.98;50.31;;
17594;Laerm;8916;47.086;15.920;2023-04-06T08:59:09;48.94;47.81;50.25;;
17594;Laerm;8916;47.086;15.920;2023-04-06T09:01:41;48.98;47.76;50.22;;
17594;Laerm;8916;47.086;15.920;2023-04-06T09:04:13;48.93;47.86;50.19;;
17594;Laerm;8916;47.086;15.920;2023-04-06T09:06:44;48.90;47.79;50.07;;
17594;Laerm;8916;47.086;15.920;2023-04-06T09:09:13;48.86;47.72;50.45;;
17594;Laerm;8916;47.086;15.920;2023-04-06T09:11:45;48.85;47.76;50.10;;
17594;Laerm;8916;47.086;15.920;2023-04-06T09:14:15;48.85;47.77;49.95;;
17594;Laerm;8916;47.086;15.920;2023-04-06T09:16:46;48.84;47.70;49.89;;
17594;Laerm;8916;47.086;15.920;2023-04-06T09:19:22;48.85;47.68;50.08;;
17594;Laerm;8916;47.086;15.920;2023-04-06T09:22:03;48.83;47.59;49.94;;
17594;Laerm;8916;47.086;15.920;2023-04-06T09:24:43;48.82;47.72;50.01;;
17594;Laerm;8916;47.086;15.920;2023-04-06T09:27:14;48.83;47.76;49.92;;
17594;Laerm;8916;47.086;15.920;2023-04-06T09:29:45;48.82;47.52;49.92;;
17594;Laerm;8916;47.086;15.920;2023-04-06T09:32:14;48.80;47.61;49.91;;
17594;Laerm;8916;47.086;15.920;2023-04-06T09:34:46;48.77;47.63;49.87;;
17594;Laerm;8916;47.086;15.920;2023-04-06T09:37:18;48.75;47.72;50.04;;
17594;Laerm;8916;47.086;15.920;2023-04-06T09:39:48;48.75;47.67;49.81;;
17594;Laerm;8916;47.086;15.920;2023-04-06T09:42:26;48.75;47.55;50.06;;
17594;Laerm;8916;47.086;15.920;2023-04-06T09:44:55;48.75;47.67;50.22;;
17594;Laerm;8916;47.086;15.920;2023-04-06T09:47:25;48.77;47.67;49.83;;
17594;Laerm;8916;47.086;15.920;2023-04-06T09:49:59;48.80;47.75;50.09;;
17594;Laerm;8916;47.086;15.920;2023-04-06T09:52:32;48.80;47.72;49.90;;
17594;Laerm;8916;47.086;15.920;2023-04-06T09:55:04;48.84;47.72;50.04;;
17594;Laerm;8916;47.086;15.920;2023-04-06T09:57:47;48.83;47.63;49.93;;
17594;Laerm;8916;47.086;15.920;2023-04-06T10:00:22;48.81;47.80;50.00;;
17594;Laerm;8916;47.086;15.920;2023-04-06T10:02:59;48.81;47.74;50.05;;
17594;Laerm;8916;47.086;15.920;2023-04-06T10:05:42;48.79;47.63;50.32;;
17594;Laerm;8916;47.086;15.920;2023-04-06T10:08:13;48.76;47.65;50.00;;
17594;Laerm;8916;47.086;15.920;2023-04-06T10:10:43;48.76;47.67;49.89;;
17594;Laerm;8916;47.086;15.920;2023-04-06T10:13:12;48.81;47.63;49.85;;
17594;Laerm;8916;47.086;15.920;2023-04-06T10:15:42;48.81;47.72;49.88;;
17594;Laerm;8916;47.086;15.920;2023-04-06T10:18:12;48.80;47.61;50.00;;
17594;Laerm;8916;47.086;15.920;2023-04-06T10:20:53;48.82;47.76;50.12;;
17594;Laerm;8916;47.086;15.920;2023-04-06T10:23:31;48.78;47.59;50.03;;
17594;Laerm;8916;47.086;15.920;2023-04-06T10:26:02;48.74;47.63;50.09;;
17594;Laerm;8916;47.086;15.920;2023-04-06T10:28:34;48.73;47.65;49.94;;
17594;Laerm;8916;47.086;15.920;2023-04-06T10:31:05;48.73;47.79;49.79;;
17594;Laerm;8916;47.086;15.920;2023-04-06T10:33:35;48.74;47.40;50.03;;
17594;Laerm;8916;47.086;15.920;2023-04-06T10:36:13;48.72;47.63;49.90;;
17594;Laerm;8916;47.086;15.920;2023-04-06T10:38:43;48.71;47.59;49.96;;
17594;Laerm;8916;47.086;15.920;2023-04-06T10:41:16;48.76;47.59;50.24;;
17594;Laerm;8916;47.086;15.920;2023-04-06T10:43:55;48.74;47.48;49.80;;
17594;Laerm;8916;47.086;15.920;2023-04-06T10:46:26;48.75;47.50;49.95;;
17594;Laerm;8916;47.086;15.920;2023-04-06T10:48:56;48.85;47.84;50.10;;
17594;Laerm;8916;47.086;15.920;2023-04-06T10:51:28;48.87;47.88;50.05;;
17594;Laerm;8916;47.086;15.920;2023-04-06T10:53:58;48.89;47.74;50.15;;
17594;Laerm;8916;47.086;15.920;2023-04-06T10:56:31;48.89;47.63;50.24;;
17594;Laerm;8916;47.086;15.920;2023-04-06T10:59:03;48.87;47.81;50.11;;
17594;Laerm;8916;47.086;15.920;2023-04-06T11:01:32;48.80;47.54;49.90;;
17594;Laerm;8916;47.086;15.920;2023-04-06T11:04:01;48.80;47.68;49.94;;
17594;Laerm;8916;47.086;15.920;2023-04-06T11:06:32;48.81;47.68;50.11;;
17594;Laerm;8916;47.086;15.920;2023-04-06T11:09:01;48.81;47.59;50.05;;
17594;Laerm;8916;47.086;15.920;2023-04-06T11:11:30;48.78;47.76;49.96;;
17594;Laerm;8916;47.086;15.920;2023-04-06T11:14:00;48.75;47.42;49.83;;
17594;Laerm;8916;47.086;15.920;2023-04-06T11:16:32;48.72;47.52;49.96;;
17594;Laerm;8916;47.086;15.920;2023-04-06T11:19:03;48.73;47.54;49.84;;
17594;Laerm;8916;47.086;15.920;2023-04-06T11:21:37;48.77;47.57;50.21;;
17594;Laerm;8916;47.086;15.920;2023-04-06T11:24:09;48.78;47.50;49.95;;
17594;Laerm;8916;47.086;15.920;2023-04-06T11:26:43;48.77;47.32;49.93;;
17594;Laerm;8916;47.086;15.920;2023-04-06T11:29:17;48.81;47.83;49.94;;
17594;Laerm;8916;47.086;15.920;2023-04-06T11:31:49;48.86;47.67;49.95;;
17594;Laerm;8916;47.086;15.920;2023-04-06T11:34:20;48.81;47.59;50.08;;
17594;Laerm;8916;47.086;15.920;2023-04-06T11:36:55;48.82;47.88;50.01;;
17594;Laerm;8916;47.086;15.920;2023-04-06T11:39:27;48.83;47.61;50.10;;
17594;Laerm;8916;47.086;15.920;2023-04-06T11:41:59;48.78;47.70;49.87;;
17594;Laerm;8916;47.086;15.920;2023-04-06T11:44:34;48.78;47.72;50.13;;
17594;Laerm;8916;47.086;15.920;2023-04-06T11:47:05;48.75;47.61;50.08;;
17594;Laerm;8916;47.086;15.920;2023-04-06T11:49:38;48.81;47.76;49.92;;
17594;Laerm;8916;47.086;15.920;2023-04-06T11:52:17;48.81;47.74;50.08;;
17594;Laerm;8916;47.086;15.920;2023-04-06T11:54:48;48.76;47.61;50.20;;
17594;Laerm;8916;47.086;15.920;2023-04-06T11:57:19;48.72;47.55;50.06;;
17594;Laerm;8916;47.086;15.920;2023-04-06T11:59:49;48.69;47.55;50.05;;
17594;Laerm;8916;47.086;15.920;2023-04-06T12:02:18;48.68;47.60;49.82;;
17594;Laerm;8916;47.086;15.920;2023-04-06T12:04:48;48.73;47.61;49.91;;
17594;Laerm;8916;47.086;15.920;2023-04-06T12:07:19;48.78;47.65;49.79;;
17594;Laerm;8916;47.086;15.920;2023-04-06T12:09:48;48.77;47.48;49.95;;
17594;Laerm;8916;47.086;15.920;2023-04-06T12:12:18;48.73;47.55;49.83;;
17594;Laerm;8916;47.086;15.920;2023-04-06T12:14:47;48.74;47.59;49.85;;
17594;Laerm;8916;47.086;15.920;2023-04-06T12:17:16;48.72;47.63;50.14;;
17594;Laerm;8916;47.086;15.920;2023-04-06T12:19:46;48.73;47.67;49.98;;
17594;Laerm;8916;47.086;15.920;2023-04-06T12:22:19;48.79;47.68;50.10;;
17594;Laerm;8916;47.086;15.920;2023-04-06T12:24:49;48.80;47.52;49.93;;
17594;Laerm;8916;47.086;15.920;2023-04-06T12:27:18;48.80;47.65;49.87;;
17594;Laerm;8916;47.086;15.920;2023-04-06T12:29:47;48.78;47.65;50.07;;
17594;Laerm;8916;47.086;15.920;2023-04-06T12:32:17;48.78;47.55;50.13;;
17594;Laerm;8916;47.086;15.920;2023-04-06T12:34:47;48.76;47.61;50.06;;
17594;Laerm;8916;47.086;15.920;2023-04-06T12:37:16;48.76;47.67;49.82;;
17594;Laerm;8916;47.086;15.920;2023-04-06T12:39:49;48.75;47.74;50.09;;
17594;Laerm;8916;47.086;15.920;2023-04-06T12:42:18;48.77;47.63;50.09;;
17594;Laerm;8916;47.086;15.920;2023-04-06T12:44:48;48.76;47.73;49.98;;
17594;Laerm;8916;47.086;15.920;2023-04-06T12:47:17;48.74;47.70;49.95;;
17594;Laerm;8916;47.086;15.920;2023-04-06T12:49:47;48.73;47.52;50.06;;
17594;Laerm;8916;47.086;15.920;2023-04-06T12:52:16;48.73;47.70;50.04;;
17594;Laerm;8916;47.086;15.920;2023-04-06T12:54:55;48.72;47.48;49.93;;
17594;Laerm;8916;47.086;15.920;2023-04-06T12:57:25;48.66;47.59;49.85;;
17594;Laerm;8916;47.086;15.920;2023-04-06T12:59:55;48.65;47.48;49.91;;
17594;Laerm;8916;47.086;15.920;2023-04-06T13:02:24;48.65;47.46;49.73;;
17594;Laerm;8916;47.086;15.920;2023-04-06T13:04:54;48.69;47.55;49.83;;
17594;Laerm;8916;47.086;15.920;2023-04-06T13:07:23;48.71;47.70;50.03;;
17594;Laerm;8916;47.086;15.920;2023-04-06T13:09:54;48.68;47.48;49.85;;
17594;Laerm;8916;47.086;15.920;2023-04-06T13:12:23;48.67;47.59;49.94;;
17594;Laerm;8916;47.086;15.920;2023-04-06T13:14:53;48.65;47.55;49.79;;
17594;Laerm;8916;47.086;15.920;2023-04-06T13:17:23;48.68;47.48;50.20;;
17594;Laerm;8916;47.086;15.920;2023-04-06T13:19:52;48.74;47.68;49.91;;
17594;Laerm;8916;47.086;15.920;2023-04-06T13:22:22;48.73;47.48;49.93;;
17594;Laerm;8916;47.086;15.920;2023-04-06T13:24:51;48.70;47.50;49.96;;
17594;Laerm;8916;47.086;15.920;2023-04-06T13:27:23;48.68;47.63;50.03;;
17594;Laerm;8916;47.086;15.920;2023-04-06T13:29:52;48.69;47.61;50.03;;
17594;Laerm;8916;47.086;15.920;2023-04-06T13:32:21;48.66;47.52;49.97;;
17594;Laerm;8916;47.086;15.920;2023-04-06T13:34:54;48.67;47.59;49.93;;
17594;Laerm;8916;47.086;15.920;2023-04-06T13:37:24;48.68;47.40;49.93;;
17594;Laerm;8916;47.086;15.920;2023-04-06T13:39:53;48.67;47.50;49.89;;
17594;Laerm;8916;47.086;15.920;2023-04-06T13:42:24;48.68;47.59;49.94;;
17594;Laerm;8916;47.086;15.920;2023-04-06T13:44:53;48.70;47.67;49.74;;
17594;Laerm;8916;47.086;15.920;2023-04-06T13:47:22;48.72;47.59;49.82;;
17594;Laerm;8916;47.086;15.920;2023-04-06T13:49:52;48.72;47.54;49.96;;
17594;Laerm;8916;47.086;15.920;2023-04-06T13:52:22;48.72;47.57;49.93;;
17594;Laerm;8916;47.086;15.920;2023-04-06T13:54:51;48.72;47.67;50.07;;
17594;Laerm;8916;47.086;15.920;2023-04-06T13:57:21;48.69;47.54;49.90;;
17594;Laerm;8916;47.086;15.920;2023-04-06T13:59:51;48.69;47.40;49.93;;
17594;Laerm;8916;47.086;15.920;2023-04-06T14:02:21;48.65;47.63;49.85;;
17594;Laerm;8916;47.086;15.920;2023-04-06T14:04:55;48.63;47.40;49.80;;
17594;Laerm;8916;47.086;15.920;2023-04-06T14:07:24;48.56;47.20;49.90;;
17594;Laerm;8916;47.086;15.920;2023-04-06T14:09:53;48.54;47.48;49.69;;